sensor_id;sensor_type;location;lat;lon;timestamp;P1;durP1;ratioP1;P2;durP2;ratioP2
59273;SDS011;45044;41.572;24.730;2022-11-15T00:00:57;28.93;;;16.67;;
59273;SDS011;45044;41.572;24.730;2022-11-15T00:03:25;24.10;;;14.80;;
59273;SDS011;45044;41.572;24.730;2022-11-15T00:05:53;25.60;;;14.33;;
59273;SDS011;45044;41.572;24.730;2022-11-15T00:08:20;25.20;;;14.17;;
59273;SDS011;45044;41.572;24.730;2022-11-15T00:10:54;35.33;;;20.00;;
59273;SDS011;45044;41.572;24.730;2022-11-15T00:15:48;20.37;;;11.47;;
59273;SDS011;45044;41.572;24.730;2022-11-15T00:18:15;21.60;;;12.00;;
59273;SDS011;45044;41.572;24.730;2022-11-15T00:20:43;23.20;;;12.30;;
59273;SDS011;45044;41.572;24.730;2022-11-15T00:23:10;22.10;;;12.33;;
59273;SDS011;45044;41.572;24.730;2022-11-15T00:25:37;20.83;;;11.37;;
59273;SDS011;45044;41.572;24.730;2022-11-15T00:28:04;19.57;;;11.50;;
59273;SDS011;45044;41.572;24.730;2022-11-15T00:30:30;18.43;;;11.00;;
59273;SDS011;45044;41.572;24.730;2022-11-15T00:33:01;26.73;;;14.30;;
59273;SDS011;45044;41.572;24.730;2022-11-15T00:35:30;27.07;;;15.83;;
59273;SDS011;45044;41.572;24.730;2022-11-15T00:37:59;20.33;;;12.53;;
59273;SDS011;45044;41.572;24.730;2022-11-15T00:40:26;22.00;;;12.87;;
59273;SDS011;45044;41.572;24.730;2022-11-15T00:42:53;23.17;;;12.87;;
59273;SDS011;45044;41.572;24.730;2022-11-15T00:45:20;19.93;;;11.27;;
59273;SDS011;45044;41.572;24.730;2022-11-15T00:47:46;19.33;;;11.33;;
59273;SDS011;45044;41.572;24.730;2022-11-15T00:50:13;18.27;;;11.73;;
59273;SDS011;45044;41.572;24.730;2022-11-15T00:52:40;21.03;;;13.17;;
59273;SDS011;45044;41.572;24.730;2022-11-15T00:55:17;21.43;;;12.90;;
59273;SDS011;45044;41.572;24.730;2022-11-15T00:57:45;17.80;;;10.73;;
59273;SDS011;45044;41.572;24.730;2022-11-15T01:00:12;17.17;;;10.00;;
59273;SDS011;45044;41.572;24.730;2022-11-15T01:02:39;17.53;;;10.33;;
59273;SDS011;45044;41.572;24.730;2022-11-15T01:05:06;34.10;;;22.40;;
59273;SDS011;45044;41.572;24.730;2022-11-15T01:07:34;43.63;;;28.03;;
59273;SDS011;45044;41.572;24.730;2022-11-15T01:10:01;37.00;;;24.57;;
59273;SDS011;45044;41.572;24.730;2022-11-15T01:12:27;36.63;;;24.53;;
59273;SDS011;45044;41.572;24.730;2022-11-15T01:14:54;32.63;;;21.80;;
59273;SDS011;45044;41.572;24.730;2022-11-15T01:17:21;30.37;;;22.03;;
59273;SDS011;45044;41.572;24.730;2022-11-15T01:19:47;21.23;;;12.27;;
59273;SDS011;45044;41.572;24.730;2022-11-15T01:22:15;17.23;;;10.33;;
59273;SDS011;45044;41.572;24.730;2022-11-15T01:24:41;17.80;;;10.17;;
59273;SDS011;45044;41.572;24.730;2022-11-15T01:27:08;18.83;;;10.57;;
59273;SDS011;45044;41.572;24.730;2022-11-15T01:29:35;17.20;;;10.33;;
59273;SDS011;45044;41.572;24.730;2022-11-15T01:32:02;21.30;;;12.73;;
59273;SDS011;45044;41.572;24.730;2022-11-15T01:34:29;19.50;;;11.17;;
59273;SDS011;45044;41.572;24.730;2022-11-15T01:36:56;19.50;;;10.60;;
59273;SDS011;45044;41.572;24.730;2022-11-15T01:39:23;20.53;;;12.07;;
59273;SDS011;45044;41.572;24.730;2022-11-15T01:41:50;18.10;;;9.87;;
59273;SDS011;45044;41.572;24.730;2022-11-15T01:47:08;83.20;;;34.30;;
59273;SDS011;45044;41.572;24.730;2022-11-15T01:49:39;100.40;;;39.30;;
59273;SDS011;45044;41.572;24.730;2022-11-15T01:52:11;41.57;;;19.53;;
59273;SDS011;45044;41.572;24.730;2022-11-15T01:54:41;19.53;;;9.83;;
59273;SDS011;45044;41.572;24.730;2022-11-15T01:57:09;17.10;;;10.40;;
59273;SDS011;45044;41.572;24.730;2022-11-15T01:59:39;22.53;;;11.13;;
59273;SDS011;45044;41.572;24.730;2022-11-15T02:02:08;26.73;;;12.63;;
59273;SDS011;45044;41.572;24.730;2022-11-15T02:04:36;19.30;;;10.97;;
59273;SDS011;45044;41.572;24.730;2022-11-15T02:07:06;17.70;;;10.30;;
59273;SDS011;45044;41.572;24.730;2022-11-15T02:09:36;21.83;;;11.60;;
59273;SDS011;45044;41.572;24.730;2022-11-15T02:12:03;20.63;;;10.37;;
59273;SDS011;45044;41.572;24.730;2022-11-15T02:14:33;18.80;;;9.93;;
59273;SDS011;45044;41.572;24.730;2022-11-15T02:17:18;80.63;;;32.40;;
59273;SDS011;45044;41.572;24.730;2022-11-15T02:25:48;29.10;;;17.03;;
59273;SDS011;45044;41.572;24.730;2022-11-15T02:40:00;51.00;;;23.90;;
59273;SDS011;45044;41.572;24.730;2022-11-15T02:42:38;52.53;;;25.43;;
59273;SDS011;45044;41.572;24.730;2022-11-15T02:45:35;48.67;;;25.30;;
59273;SDS011;45044;41.572;24.730;2022-11-15T02:48:05;65.10;;;31.10;;
59273;SDS011;45044;41.572;24.730;2022-11-15T02:50:33;34.17;;;16.50;;
59273;SDS011;45044;41.572;24.730;2022-11-15T02:53:01;22.10;;;11.70;;
59273;SDS011;45044;41.572;24.730;2022-11-15T02:55:31;17.50;;;9.13;;
59273;SDS011;45044;41.572;24.730;2022-11-15T02:58:09;19.77;;;10.77;;
59273;SDS011;45044;41.572;24.730;2022-11-15T03:08:57;14.77;;;9.33;;
59273;SDS011;45044;41.572;24.730;2022-11-15T03:11:59;18.30;;;10.90;;
59273;SDS011;45044;41.572;24.730;2022-11-15T03:14:34;18.97;;;10.47;;
59273;SDS011;45044;41.572;24.730;2022-11-15T03:17:36;17.67;;;10.37;;
59273;SDS011;45044;41.572;24.730;2022-11-15T03:22:57;27.57;;;13.87;;
59273;SDS011;45044;41.572;24.730;2022-11-15T03:25:29;154.00;;;49.65;;
59273;SDS011;45044;41.572;24.730;2022-11-15T03:27:58;28.23;;;13.90;;
59273;SDS011;45044;41.572;24.730;2022-11-15T03:30:30;20.13;;;10.07;;
59273;SDS011;45044;41.572;24.730;2022-11-15T03:33:00;22.57;;;11.47;;
59273;SDS011;45044;41.572;24.730;2022-11-15T03:35:32;31.80;;;15.70;;
59273;SDS011;45044;41.572;24.730;2022-11-15T03:38:23;68.53;;;28.43;;
59273;SDS011;45044;41.572;24.730;2022-11-15T03:40:58;58.17;;;27.27;;
59273;SDS011;45044;41.572;24.730;2022-11-15T03:43:34;121.20;;;50.30;;
59273;SDS011;45044;41.572;24.730;2022-11-15T03:48:57;44.73;;;19.50;;
59273;SDS011;45044;41.572;24.730;2022-11-15T03:51:32;77.77;;;33.13;;
59273;SDS011;45044;41.572;24.730;2022-11-15T03:53:59;94.27;;;39.73;;
59273;SDS011;45044;41.572;24.730;2022-11-15T03:56:25;92.13;;;38.33;;
59273;SDS011;45044;41.572;24.730;2022-11-15T03:58:52;78.43;;;34.23;;
59273;SDS011;45044;41.572;24.730;2022-11-15T04:01:19;40.07;;;20.17;;
59273;SDS011;45044;41.572;24.730;2022-11-15T04:03:45;21.03;;;12.10;;
59273;SDS011;45044;41.572;24.730;2022-11-15T04:06:12;39.87;;;19.53;;
59273;SDS011;45044;41.572;24.730;2022-11-15T04:08:39;50.67;;;25.93;;
59273;SDS011;45044;41.572;24.730;2022-11-15T04:11:06;34.60;;;20.33;;
59273;SDS011;45044;41.572;24.730;2022-11-15T04:13:32;31.17;;;20.63;;
59273;SDS011;45044;41.572;24.730;2022-11-15T04:16:00;39.50;;;27.23;;
59273;SDS011;45044;41.572;24.730;2022-11-15T04:18:26;48.20;;;33.63;;
59273;SDS011;45044;41.572;24.730;2022-11-15T04:20:53;43.70;;;30.10;;
59273;SDS011;45044;41.572;24.730;2022-11-15T04:23:38;43.22;;;29.90;;
59273;SDS011;45044;41.572;24.730;2022-11-15T04:26:23;66.77;;;41.97;;
59273;SDS011;45044;41.572;24.730;2022-11-15T04:28:50;83.63;;;46.70;;
59273;SDS011;45044;41.572;24.730;2022-11-15T04:31:35;118.17;;;62.27;;
59273;SDS011;45044;41.572;24.730;2022-11-15T04:34:02;49.07;;;29.57;;
59273;SDS011;45044;41.572;24.730;2022-11-15T04:36:29;32.40;;;19.47;;
59273;SDS011;45044;41.572;24.730;2022-11-15T04:39:14;30.50;;;19.13;;
59273;SDS011;45044;41.572;24.730;2022-11-15T04:41:42;40.00;;;25.03;;
59273;SDS011;45044;41.572;24.730;2022-11-15T04:44:09;39.00;;;25.27;;
59273;SDS011;45044;41.572;24.730;2022-11-15T04:46:36;40.10;;;25.10;;
59273;SDS011;45044;41.572;24.730;2022-11-15T04:49:02;41.03;;;25.83;;
59273;SDS011;45044;41.572;24.730;2022-11-15T04:51:29;43.60;;;27.37;;
59273;SDS011;45044;41.572;24.730;2022-11-15T04:53:56;30.30;;;20.67;;
59273;SDS011;45044;41.572;24.730;2022-11-15T04:56:22;28.60;;;20.23;;
59273;SDS011;45044;41.572;24.730;2022-11-15T04:58:49;30.03;;;20.13;;
59273;SDS011;45044;41.572;24.730;2022-11-15T05:01:16;34.37;;;22.27;;
59273;SDS011;45044;41.572;24.730;2022-11-15T05:03:43;27.53;;;17.33;;
59273;SDS011;45044;41.572;24.730;2022-11-15T05:06:30;46.17;;;24.77;;
59273;SDS011;45044;41.572;24.730;2022-11-15T05:08:57;27.47;;;16.43;;
59273;SDS011;45044;41.572;24.730;2022-11-15T05:11:24;36.93;;;18.27;;
59273;SDS011;45044;41.572;24.730;2022-11-15T05:13:51;40.07;;;21.10;;
59273;SDS011;45044;41.572;24.730;2022-11-15T05:16:17;38.80;;;20.77;;
59273;SDS011;45044;41.572;24.730;2022-11-15T05:18:44;32.33;;;19.57;;
59273;SDS011;45044;41.572;24.730;2022-11-15T05:21:12;39.80;;;22.40;;
59273;SDS011;45044;41.572;24.730;2022-11-15T05:23:40;43.43;;;24.83;;
59273;SDS011;45044;41.572;24.730;2022-11-15T05:26:07;38.90;;;23.33;;
59273;SDS011;45044;41.572;24.730;2022-11-15T05:28:35;44.70;;;26.23;;
59273;SDS011;45044;41.572;24.730;2022-11-15T05:31:07;55.07;;;32.23;;
59273;SDS011;45044;41.572;24.730;2022-11-15T05:33:40;54.15;;;33.67;;
59273;SDS011;45044;41.572;24.730;2022-11-15T05:38:54;47.83;;;28.37;;
59273;SDS011;45044;41.572;24.730;2022-11-15T05:41:24;42.00;;;25.33;;
59273;SDS011;45044;41.572;24.730;2022-11-15T05:43:57;28.30;;;18.10;;
59273;SDS011;45044;41.572;24.730;2022-11-15T05:46:25;33.83;;;22.83;;
59273;SDS011;45044;41.572;24.730;2022-11-15T05:48:51;32.97;;;21.97;;
59273;SDS011;45044;41.572;24.730;2022-11-15T05:51:20;32.47;;;24.03;;
59273;SDS011;45044;41.572;24.730;2022-11-15T05:53:49;44.00;;;30.30;;
59273;SDS011;45044;41.572;24.730;2022-11-15T05:56:17;34.20;;;23.40;;
59273;SDS011;45044;41.572;24.730;2022-11-15T05:58:44;34.93;;;21.50;;
59273;SDS011;45044;41.572;24.730;2022-11-15T06:01:11;33.13;;;20.63;;
59273;SDS011;45044;41.572;24.730;2022-11-15T06:03:37;34.13;;;21.27;;
59273;SDS011;45044;41.572;24.730;2022-11-15T06:06:04;34.10;;;23.97;;
59273;SDS011;45044;41.572;24.730;2022-11-15T06:08:31;35.97;;;24.30;;
59273;SDS011;45044;41.572;24.730;2022-11-15T06:11:02;38.47;;;25.97;;
59273;SDS011;45044;41.572;24.730;2022-11-15T06:13:30;41.13;;;26.33;;
59273;SDS011;45044;41.572;24.730;2022-11-15T06:15:57;42.07;;;30.57;;
59273;SDS011;45044;41.572;24.730;2022-11-15T06:18:24;47.90;;;33.13;;
59273;SDS011;45044;41.572;24.730;2022-11-15T06:20:51;51.70;;;34.30;;
59273;SDS011;45044;41.572;24.730;2022-11-15T06:23:17;45.70;;;32.17;;
59273;SDS011;45044;41.572;24.730;2022-11-15T06:25:44;40.77;;;28.60;;
59273;SDS011;45044;41.572;24.730;2022-11-15T06:28:11;36.90;;;24.60;;
59273;SDS011;45044;41.572;24.730;2022-11-15T06:30:37;33.50;;;25.03;;
59273;SDS011;45044;41.572;24.730;2022-11-15T06:33:04;33.83;;;25.87;;
59273;SDS011;45044;41.572;24.730;2022-11-15T06:35:32;40.97;;;29.05;;
59273;SDS011;45044;41.572;24.730;2022-11-15T06:38:04;37.25;;;26.80;;
59273;SDS011;45044;41.572;24.730;2022-11-15T06:40:36;34.30;;;27.20;;
59273;SDS011;45044;41.572;24.730;2022-11-15T06:43:04;30.35;;;24.92;;
59273;SDS011;45044;41.572;24.730;2022-11-15T06:45:32;30.52;;;24.02;;
59273;SDS011;45044;41.572;24.730;2022-11-15T06:47:59;27.42;;;20.17;;
59273;SDS011;45044;41.572;24.730;2022-11-15T06:50:26;24.05;;;19.88;;
59273;SDS011;45044;41.572;24.730;2022-11-15T06:52:52;29.88;;;22.17;;
59273;SDS011;45044;41.572;24.730;2022-11-15T06:55:20;26.83;;;20.77;;
59273;SDS011;45044;41.572;24.730;2022-11-15T06:57:51;30.10;;;21.33;;
59273;SDS011;45044;41.572;24.730;2022-11-15T07:00:19;26.60;;;21.08;;
59273;SDS011;45044;41.572;24.730;2022-11-15T07:02:47;26.15;;;19.83;;
59273;SDS011;45044;41.572;24.730;2022-11-15T07:05:15;27.95;;;20.33;;
59273;SDS011;45044;41.572;24.730;2022-11-15T07:07:42;19.95;;;15.73;;
59273;SDS011;45044;41.572;24.730;2022-11-15T07:10:09;23.23;;;17.77;;
59273;SDS011;45044;41.572;24.730;2022-11-15T07:12:36;23.38;;;17.83;;
59273;SDS011;45044;41.572;24.730;2022-11-15T07:15:03;23.48;;;18.20;;
59273;SDS011;45044;41.572;24.730;2022-11-15T07:17:30;24.13;;;17.30;;
59273;SDS011;45044;41.572;24.730;2022-11-15T07:19:56;27.90;;;19.48;;
59273;SDS011;45044;41.572;24.730;2022-11-15T07:22:23;25.27;;;20.08;;
59273;SDS011;45044;41.572;24.730;2022-11-15T07:24:49;23.15;;;19.13;;
59273;SDS011;45044;41.572;24.730;2022-11-15T07:27:16;25.02;;;20.15;;
59273;SDS011;45044;41.572;24.730;2022-11-15T07:29:43;25.20;;;20.73;;
59273;SDS011;45044;41.572;24.730;2022-11-15T07:32:10;22.75;;;17.95;;
59273;SDS011;45044;41.572;24.730;2022-11-15T07:34:37;23.38;;;17.42;;
59273;SDS011;45044;41.572;24.730;2022-11-15T07:37:03;20.63;;;15.35;;
59273;SDS011;45044;41.572;24.730;2022-11-15T07:39:30;18.65;;;13.45;;
59273;SDS011;45044;41.572;24.730;2022-11-15T07:41:57;17.02;;;13.18;;
59273;SDS011;45044;41.572;24.730;2022-11-15T07:47:19;18.48;;;13.88;;
59273;SDS011;45044;41.572;24.730;2022-11-15T07:49:46;22.27;;;15.43;;
59273;SDS011;45044;41.572;24.730;2022-11-15T07:52:13;20.58;;;14.40;;
59273;SDS011;45044;41.572;24.730;2022-11-15T07:54:40;16.77;;;12.10;;
59273;SDS011;45044;41.572;24.730;2022-11-15T07:57:07;18.40;;;12.60;;
59273;SDS011;45044;41.572;24.730;2022-11-15T07:59:35;18.45;;;13.75;;
59273;SDS011;45044;41.572;24.730;2022-11-15T08:02:02;17.08;;;13.10;;
59273;SDS011;45044;41.572;24.730;2022-11-15T08:04:29;16.60;;;12.13;;
59273;SDS011;45044;41.572;24.730;2022-11-15T08:06:55;15.70;;;11.18;;
59273;SDS011;45044;41.572;24.730;2022-11-15T08:09:23;14.85;;;8.73;;
59273;SDS011;45044;41.572;24.730;2022-11-15T08:11:50;17.60;;;10.73;;
59273;SDS011;45044;41.572;24.730;2022-11-15T08:14:17;11.35;;;7.10;;
59273;SDS011;45044;41.572;24.730;2022-11-15T08:16:43;12.48;;;7.07;;
59273;SDS011;45044;41.572;24.730;2022-11-15T08:19:10;10.38;;;6.93;;
59273;SDS011;45044;41.572;24.730;2022-11-15T08:21:36;12.32;;;8.60;;
59273;SDS011;45044;41.572;24.730;2022-11-15T08:24:03;15.00;;;10.23;;
59273;SDS011;45044;41.572;24.730;2022-11-15T08:26:30;14.35;;;9.30;;
59273;SDS011;45044;41.572;24.730;2022-11-15T08:28:57;13.25;;;9.18;;
59273;SDS011;45044;41.572;24.730;2022-11-15T08:31:24;13.48;;;8.57;;
59273;SDS011;45044;41.572;24.730;2022-11-15T08:33:50;13.70;;;9.27;;
59273;SDS011;45044;41.572;24.730;2022-11-15T08:36:17;17.45;;;9.95;;
59273;SDS011;45044;41.572;24.730;2022-11-15T08:38:44;12.73;;;7.80;;
59273;SDS011;45044;41.572;24.730;2022-11-15T08:41:13;12.13;;;7.57;;
59273;SDS011;45044;41.572;24.730;2022-11-15T08:46:13;12.98;;;8.80;;
59273;SDS011;45044;41.572;24.730;2022-11-15T08:48:40;13.05;;;7.90;;
59273;SDS011;45044;41.572;24.730;2022-11-15T08:51:06;14.25;;;8.13;;
59273;SDS011;45044;41.572;24.730;2022-11-15T08:53:33;10.90;;;7.32;;
59273;SDS011;45044;41.572;24.730;2022-11-15T08:56:00;12.23;;;6.72;;
59273;SDS011;45044;41.572;24.730;2022-11-15T08:58:28;9.75;;;6.68;;
59273;SDS011;45044;41.572;24.730;2022-11-15T09:00:55;9.45;;;5.50;;
59273;SDS011;45044;41.572;24.730;2022-11-15T09:03:22;8.57;;;5.47;;
59273;SDS011;45044;41.572;24.730;2022-11-15T09:05:48;9.07;;;6.15;;
59273;SDS011;45044;41.572;24.730;2022-11-15T09:08:20;10.90;;;6.20;;
59273;SDS011;45044;41.572;24.730;2022-11-15T09:11:08;10.10;;;6.60;;
59273;SDS011;45044;41.572;24.730;2022-11-15T09:13:36;10.07;;;6.47;;
59273;SDS011;45044;41.572;24.730;2022-11-15T09:16:04;10.88;;;5.13;;
59273;SDS011;45044;41.572;24.730;2022-11-15T09:18:31;8.38;;;5.07;;
59273;SDS011;45044;41.572;24.730;2022-11-15T09:20:59;11.85;;;7.35;;
59273;SDS011;45044;41.572;24.730;2022-11-15T09:23:26;9.10;;;5.90;;
59273;SDS011;45044;41.572;24.730;2022-11-15T09:25:57;8.77;;;5.43;;
59273;SDS011;45044;41.572;24.730;2022-11-15T09:28:29;9.20;;;5.80;;
59273;SDS011;45044;41.572;24.730;2022-11-15T09:31:14;7.78;;;4.93;;
59273;SDS011;45044;41.572;24.730;2022-11-15T09:33:47;8.15;;;5.22;;
59273;SDS011;45044;41.572;24.730;2022-11-15T09:36:13;8.65;;;5.80;;
59273;SDS011;45044;41.572;24.730;2022-11-15T09:38:40;9.20;;;5.72;;
59273;SDS011;45044;41.572;24.730;2022-11-15T09:49:22;9.52;;;5.82;;
59273;SDS011;45044;41.572;24.730;2022-11-15T09:51:50;10.23;;;6.22;;
59273;SDS011;45044;41.572;24.730;2022-11-15T09:59:54;8.50;;;4.93;;
59273;SDS011;45044;41.572;24.730;2022-11-15T10:05:50;22.75;;;9.13;;
59273;SDS011;45044;41.572;24.730;2022-11-15T10:11:11;10.88;;;6.57;;
59273;SDS011;45044;41.572;24.730;2022-11-15T10:14:23;11.65;;;8.07;;
59273;SDS011;45044;41.572;24.730;2022-11-15T10:22:17;11.45;;;7.13;;
59273;SDS011;45044;41.572;24.730;2022-11-15T10:24:50;18.38;;;9.30;;
59273;SDS011;45044;41.572;24.730;2022-11-15T10:27:26;17.45;;;9.35;;
59273;SDS011;45044;41.572;24.730;2022-11-15T10:29:53;14.00;;;8.52;;
59273;SDS011;45044;41.572;24.730;2022-11-15T10:32:20;13.82;;;8.23;;
59273;SDS011;45044;41.572;24.730;2022-11-15T10:34:48;13.65;;;8.88;;
59273;SDS011;45044;41.572;24.730;2022-11-15T10:37:26;13.73;;;8.23;;
59273;SDS011;45044;41.572;24.730;2022-11-15T10:40:14;11.05;;;6.85;;
59273;SDS011;45044;41.572;24.730;2022-11-15T10:42:46;9.75;;;6.70;;
59273;SDS011;45044;41.572;24.730;2022-11-15T10:45:24;10.30;;;6.40;;
59273;SDS011;45044;41.572;24.730;2022-11-15T10:47:52;10.95;;;6.82;;
59273;SDS011;45044;41.572;24.730;2022-11-15T10:50:27;11.05;;;6.90;;
59273;SDS011;45044;41.572;24.730;2022-11-15T10:52:56;10.07;;;6.70;;
59273;SDS011;45044;41.572;24.730;2022-11-15T10:55:24;10.57;;;7.07;;
59273;SDS011;45044;41.572;24.730;2022-11-15T10:57:55;11.32;;;7.43;;
59273;SDS011;45044;41.572;24.730;2022-11-15T11:00:46;10.57;;;6.95;;
59273;SDS011;45044;41.572;24.730;2022-11-15T11:03:57;9.40;;;6.82;;
59273;SDS011;45044;41.572;24.730;2022-11-15T11:06:14;11.60;;;7.75;;
59273;SDS011;45044;41.572;24.730;2022-11-15T11:09:04;10.63;;;7.10;;
59273;SDS011;45044;41.572;24.730;2022-11-15T11:11:47;12.25;;;6.90;;
59273;SDS011;45044;41.572;24.730;2022-11-15T11:14:23;10.68;;;7.50;;
59273;SDS011;45044;41.572;24.730;2022-11-15T11:27:29;11.43;;;7.30;;
59273;SDS011;45044;41.572;24.730;2022-11-15T11:47:23;10.30;;;7.45;;
59273;SDS011;45044;41.572;24.730;2022-11-15T11:50:03;11.52;;;8.32;;
59273;SDS011;45044;41.572;24.730;2022-11-15T11:55:42;13.35;;;7.35;;
59273;SDS011;45044;41.572;24.730;2022-11-15T11:58:23;12.93;;;6.60;;
59273;SDS011;45044;41.572;24.730;2022-11-15T12:01:45;12.07;;;6.72;;
59273;SDS011;45044;41.572;24.730;2022-11-15T12:12:25;13.80;;;8.05;;
59273;SDS011;45044;41.572;24.730;2022-11-15T12:15:02;12.23;;;7.88;;
59273;SDS011;45044;41.572;24.730;2022-11-15T12:17:37;12.75;;;7.13;;
59273;SDS011;45044;41.572;24.730;2022-11-15T12:20:16;11.35;;;7.30;;
59273;SDS011;45044;41.572;24.730;2022-11-15T12:31:05;10.18;;;7.05;;
59273;SDS011;45044;41.572;24.730;2022-11-15T12:33:56;12.80;;;8.70;;
59273;SDS011;45044;41.572;24.730;2022-11-15T12:36:35;10.52;;;6.97;;
59273;SDS011;45044;41.572;24.730;2022-11-15T12:39:05;12.63;;;7.90;;
59273;SDS011;45044;41.572;24.730;2022-11-15T12:41:35;10.90;;;6.70;;
59273;SDS011;45044;41.572;24.730;2022-11-15T12:44:05;13.80;;;8.32;;
59273;SDS011;45044;41.572;24.730;2022-11-15T12:49:09;11.23;;;7.57;;
59273;SDS011;45044;41.572;24.730;2022-11-15T13:02:18;11.75;;;8.35;;
59273;SDS011;45044;41.572;24.730;2022-11-15T13:30:53;12.57;;;8.40;;
59273;SDS011;45044;41.572;24.730;2022-11-15T13:33:30;11.40;;;7.28;;
59273;SDS011;45044;41.572;24.730;2022-11-15T13:36:44;12.77;;;8.95;;
59273;SDS011;45044;41.572;24.730;2022-11-15T13:41:28;16.35;;;10.88;;
59273;SDS011;45044;41.572;24.730;2022-11-15T13:43:58;18.48;;;12.48;;
59273;SDS011;45044;41.572;24.730;2022-11-15T13:46:26;21.23;;;13.52;;
59273;SDS011;45044;41.572;24.730;2022-11-15T13:49:00;17.17;;;11.43;;
59273;SDS011;45044;41.572;24.730;2022-11-15T13:54:25;21.23;;;15.43;;
59273;SDS011;45044;41.572;24.730;2022-11-15T13:57:02;23.52;;;16.70;;
59273;SDS011;45044;41.572;24.730;2022-11-15T13:59:35;21.90;;;15.65;;
59273;SDS011;45044;41.572;24.730;2022-11-15T14:02:20;21.30;;;14.90;;
59273;SDS011;45044;41.572;24.730;2022-11-15T14:04:59;37.03;;;24.25;;
59273;SDS011;45044;41.572;24.730;2022-11-15T14:07:29;32.38;;;24.73;;
59273;SDS011;45044;41.572;24.730;2022-11-15T14:09:56;25.52;;;19.33;;
59273;SDS011;45044;41.572;24.730;2022-11-15T14:12:25;22.70;;;16.63;;
59273;SDS011;45044;41.572;24.730;2022-11-15T14:14:52;26.33;;;19.77;;
59273;SDS011;45044;41.572;24.730;2022-11-15T14:17:21;35.25;;;24.75;;
59273;SDS011;45044;41.572;24.730;2022-11-15T14:19:49;41.72;;;27.05;;
59273;SDS011;45044;41.572;24.730;2022-11-15T14:22:19;49.50;;;34.10;;
59273;SDS011;45044;41.572;24.730;2022-11-15T14:27:40;42.15;;;31.60;;
59273;SDS011;45044;41.572;24.730;2022-11-15T14:30:14;57.92;;;42.63;;
59273;SDS011;45044;41.572;24.730;2022-11-15T14:35:18;47.30;;;34.60;;
59273;SDS011;45044;41.572;24.730;2022-11-15T14:37:48;44.20;;;35.20;;
59273;SDS011;45044;41.572;24.730;2022-11-15T14:40:19;45.00;;;34.13;;
59273;SDS011;45044;41.572;24.730;2022-11-15T14:42:48;42.10;;;32.45;;
59273;SDS011;45044;41.572;24.730;2022-11-15T14:45:17;45.80;;;35.78;;
59273;SDS011;45044;41.572;24.730;2022-11-15T14:47:46;52.13;;;37.45;;
59273;SDS011;45044;41.572;24.730;2022-11-15T14:50:14;47.35;;;33.33;;
59273;SDS011;45044;41.572;24.730;2022-11-15T14:52:42;54.95;;;39.50;;
59273;SDS011;45044;41.572;24.730;2022-11-15T14:55:29;53.53;;;39.25;;
59273;SDS011;45044;41.572;24.730;2022-11-15T14:58:04;50.83;;;37.05;;
59273;SDS011;45044;41.572;24.730;2022-11-15T15:00:34;53.03;;;38.22;;
59273;SDS011;45044;41.572;24.730;2022-11-15T15:03:03;51.20;;;35.25;;
59273;SDS011;45044;41.572;24.730;2022-11-15T15:07:58;63.40;;;44.60;;
59273;SDS011;45044;41.572;24.730;2022-11-15T15:10:37;81.07;;;55.28;;
59273;SDS011;45044;41.572;24.730;2022-11-15T15:13:15;53.80;;;42.90;;
59273;SDS011;45044;41.572;24.730;2022-11-15T15:15:47;58.67;;;38.65;;
59273;SDS011;45044;41.572;24.730;2022-11-15T15:18:14;54.20;;;37.42;;
59273;SDS011;45044;41.572;24.730;2022-11-15T15:20:43;59.47;;;42.47;;
59273;SDS011;45044;41.572;24.730;2022-11-15T15:23:16;67.93;;;47.90;;
59273;SDS011;45044;41.572;24.730;2022-11-15T15:25:44;66.40;;;45.78;;
59273;SDS011;45044;41.572;24.730;2022-11-15T15:28:12;59.90;;;42.83;;
59273;SDS011;45044;41.572;24.730;2022-11-15T15:30:39;63.30;;;41.65;;
59273;SDS011;45044;41.572;24.730;2022-11-15T15:33:06;64.68;;;45.63;;
59273;SDS011;45044;41.572;24.730;2022-11-15T15:35:33;50.72;;;40.20;;
59273;SDS011;45044;41.572;24.730;2022-11-15T15:38:01;42.60;;;30.88;;
59273;SDS011;45044;41.572;24.730;2022-11-15T15:40:29;48.25;;;35.53;;
59273;SDS011;45044;41.572;24.730;2022-11-15T15:42:58;47.75;;;34.70;;
59273;SDS011;45044;41.572;24.730;2022-11-15T15:45:26;45.80;;;34.33;;
59273;SDS011;45044;41.572;24.730;2022-11-15T15:47:56;57.72;;;44.80;;
59273;SDS011;45044;41.572;24.730;2022-11-15T15:50:24;46.17;;;36.20;;
59273;SDS011;45044;41.572;24.730;2022-11-15T15:52:53;61.08;;;39.58;;
59273;SDS011;45044;41.572;24.730;2022-11-15T15:55:22;54.05;;;38.60;;
59273;SDS011;45044;41.572;24.730;2022-11-15T15:57:49;49.38;;;35.15;;
59273;SDS011;45044;41.572;24.730;2022-11-15T16:00:17;61.10;;;42.47;;
59273;SDS011;45044;41.572;24.730;2022-11-15T16:02:44;82.30;;;55.33;;
59273;SDS011;45044;41.572;24.730;2022-11-15T16:05:11;51.97;;;38.70;;
59273;SDS011;45044;41.572;24.730;2022-11-15T16:07:38;64.32;;;44.60;;
59273;SDS011;45044;41.572;24.730;2022-11-15T16:10:17;68.55;;;47.47;;
59273;SDS011;45044;41.572;24.730;2022-11-15T16:12:50;66.10;;;45.58;;
59273;SDS011;45044;41.572;24.730;2022-11-15T16:15:18;60.30;;;46.50;;
59273;SDS011;45044;41.572;24.730;2022-11-15T16:17:55;62.20;;;48.72;;
59273;SDS011;45044;41.572;24.730;2022-11-15T16:23:01;60.53;;;46.00;;
59273;SDS011;45044;41.572;24.730;2022-11-15T16:25:45;73.72;;;52.90;;
59273;SDS011;45044;41.572;24.730;2022-11-15T16:33:31;65.10;;;49.72;;
59273;SDS011;45044;41.572;24.730;2022-11-15T16:35:59;92.18;;;66.10;;
59273;SDS011;45044;41.572;24.730;2022-11-15T16:38:28;112.35;;;78.82;;
59273;SDS011;45044;41.572;24.730;2022-11-15T16:40:55;102.35;;;73.90;;
59273;SDS011;45044;41.572;24.730;2022-11-15T16:43:22;87.22;;;57.15;;
59273;SDS011;45044;41.572;24.730;2022-11-15T16:45:49;88.28;;;64.38;;
59273;SDS011;45044;41.572;24.730;2022-11-15T16:48:25;95.30;;;64.50;;
59273;SDS011;45044;41.572;24.730;2022-11-15T16:50:56;98.45;;;67.22;;
59273;SDS011;45044;41.572;24.730;2022-11-15T16:53:24;97.47;;;65.35;;
59273;SDS011;45044;41.572;24.730;2022-11-15T16:55:52;105.00;;;68.53;;
59273;SDS011;45044;41.572;24.730;2022-11-15T16:58:20;125.13;;;79.38;;
59273;SDS011;45044;41.572;24.730;2022-11-15T17:00:53;60.70;;;42.47;;
59273;SDS011;45044;41.572;24.730;2022-11-15T17:03:22;56.83;;;41.17;;
59273;SDS011;45044;41.572;24.730;2022-11-15T17:05:50;67.93;;;46.60;;
59273;SDS011;45044;41.572;24.730;2022-11-15T17:08:17;56.97;;;40.17;;
59273;SDS011;45044;41.572;24.730;2022-11-15T17:10:47;78.07;;;51.13;;
59273;SDS011;45044;41.572;24.730;2022-11-15T17:13:14;115.93;;;70.85;;
59273;SDS011;45044;41.572;24.730;2022-11-15T17:15:42;150.40;;;93.70;;
59273;SDS011;45044;41.572;24.730;2022-11-15T17:18:09;147.20;;;89.05;;
59273;SDS011;45044;41.572;24.730;2022-11-15T17:20:39;178.15;;;112.80;;
59273;SDS011;45044;41.572;24.730;2022-11-15T17:23:07;199.52;;;121.70;;
59273;SDS011;45044;41.572;24.730;2022-11-15T17:25:40;261.42;;;139.70;;
59273;SDS011;45044;41.572;24.730;2022-11-15T17:28:07;383.92;;;194.10;;